sensor_id;sensor_type;location;lat;lon;timestamp;P1;durP1;ratioP1;P2;durP2;ratioP2
59788;SDS011;47353;51.614;5.530;2022-09-24T00:01:24;26.05;;;17.92;;
59788;SDS011;47353;51.614;5.530;2022-09-24T00:03:54;27.58;;;18.27;;
59788;SDS011;47353;51.614;5.530;2022-09-24T00:06:21;25.90;;;17.63;;
59788;SDS011;47353;51.614;5.530;2022-09-24T00:08:48;24.58;;;17.67;;
59788;SDS011;47353;51.614;5.530;2022-09-24T00:11:15;24.98;;;17.95;;
59788;SDS011;47353;51.614;5.530;2022-09-24T00:13:43;25.63;;;17.45;;
59788;SDS011;47353;51.614;5.530;2022-09-24T00:16:10;22.45;;;16.35;;
59788;SDS011;47353;51.614;5.530;2022-09-24T00:18:37;24.60;;;16.63;;
59788;SDS011;47353;51.614;5.530;2022-09-24T00:24:01;24.23;;;17.27;;
59788;SDS011;47353;51.614;5.530;2022-09-24T00:26:28;25.20;;;17.05;;
59788;SDS011;47353;51.614;5.530;2022-09-24T00:29:14;23.13;;;16.98;;
59788;SDS011;47353;51.614;5.530;2022-09-24T00:31:42;22.00;;;15.48;;
59788;SDS011;47353;51.614;5.530;2022-09-24T00:34:07;22.40;;;16.38;;
59788;SDS011;47353;51.614;5.530;2022-09-24T00:36:33;21.95;;;16.02;;
59788;SDS011;47353;51.614;5.530;2022-09-24T00:38:58;21.95;;;16.48;;
59788;SDS011;47353;51.614;5.530;2022-09-24T00:41:26;23.55;;;16.38;;
59788;SDS011;47353;51.614;5.530;2022-09-24T00:43:53;23.98;;;16.58;;
59788;SDS011;47353;51.614;5.530;2022-09-24T00:46:24;24.30;;;16.02;;
59788;SDS011;47353;51.614;5.530;2022-09-24T00:49:01;24.27;;;17.17;;
59788;SDS011;47353;51.614;5.530;2022-09-24T00:51:36;23.08;;;16.63;;
59788;SDS011;47353;51.614;5.530;2022-09-24T00:54:05;24.25;;;16.55;;
59788;SDS011;47353;51.614;5.530;2022-09-24T00:56:34;26.27;;;16.75;;
59788;SDS011;47353;51.614;5.530;2022-09-24T00:59:01;23.27;;;16.42;;
59788;SDS011;47353;51.614;5.530;2022-09-24T01:01:30;22.48;;;16.42;;
59788;SDS011;47353;51.614;5.530;2022-09-24T01:03:56;23.02;;;15.85;;
59788;SDS011;47353;51.614;5.530;2022-09-24T01:06:23;24.80;;;16.40;;
59788;SDS011;47353;51.614;5.530;2022-09-24T01:08:49;26.15;;;16.95;;
59788;SDS011;47353;51.614;5.530;2022-09-24T01:20:05;26.85;;;15.50;;
59788;SDS011;47353;51.614;5.530;2022-09-24T01:23:11;20.70;;;14.55;;
59788;SDS011;47353;51.614;5.530;2022-09-24T01:32:10;19.63;;;14.35;;
59788;SDS011;47353;51.614;5.530;2022-09-24T01:34:39;20.45;;;14.07;;
59788;SDS011;47353;51.614;5.530;2022-09-24T01:37:09;18.23;;;14.20;;
59788;SDS011;47353;51.614;5.530;2022-09-24T01:39:38;21.15;;;14.80;;
59788;SDS011;47353;51.614;5.530;2022-09-24T01:42:07;18.92;;;13.95;;
59788;SDS011;47353;51.614;5.530;2022-09-24T01:44:35;18.83;;;13.60;;
59788;SDS011;47353;51.614;5.530;2022-09-24T01:47:02;22.20;;;14.23;;
59788;SDS011;47353;51.614;5.530;2022-09-24T01:49:30;17.83;;;13.80;;
59788;SDS011;47353;51.614;5.530;2022-09-24T01:51:58;19.13;;;14.43;;
59788;SDS011;47353;51.614;5.530;2022-09-24T01:54:34;21.65;;;14.45;;
59788;SDS011;47353;51.614;5.530;2022-09-24T01:57:11;22.58;;;13.93;;
59788;SDS011;47353;51.614;5.530;2022-09-24T02:02:21;21.30;;;14.43;;
59788;SDS011;47353;51.614;5.530;2022-09-24T02:05:17;22.70;;;15.63;;
59788;SDS011;47353;51.614;5.530;2022-09-24T02:08:05;22.13;;;15.18;;
59788;SDS011;47353;51.614;5.530;2022-09-24T02:10:33;21.50;;;15.05;;
59788;SDS011;47353;51.614;5.530;2022-09-24T02:13:10;21.45;;;15.73;;
59788;SDS011;47353;51.614;5.530;2022-09-24T02:15:39;20.98;;;15.60;;
59788;SDS011;47353;51.614;5.530;2022-09-24T02:18:10;20.38;;;14.73;;
59788;SDS011;47353;51.614;5.530;2022-09-24T02:20:38;22.00;;;15.27;;
59788;SDS011;47353;51.614;5.530;2022-09-24T02:23:07;21.08;;;15.25;;
59788;SDS011;47353;51.614;5.530;2022-09-24T02:25:44;21.30;;;15.05;;
59788;SDS011;47353;51.614;5.530;2022-09-24T02:28:24;20.40;;;14.77;;
59788;SDS011;47353;51.614;5.530;2022-09-24T02:30:52;21.42;;;15.82;;
59788;SDS011;47353;51.614;5.530;2022-09-24T02:33:23;21.73;;;15.10;;
59788;SDS011;47353;51.614;5.530;2022-09-24T02:36:10;20.88;;;14.68;;
59788;SDS011;47353;51.614;5.530;2022-09-24T02:38:36;21.80;;;14.90;;
59788;SDS011;47353;51.614;5.530;2022-09-24T02:41:02;25.40;;;15.60;;
59788;SDS011;47353;51.614;5.530;2022-09-24T02:43:29;21.88;;;15.10;;
59788;SDS011;47353;51.614;5.530;2022-09-24T02:45:54;23.15;;;15.48;;
59788;SDS011;47353;51.614;5.530;2022-09-24T02:48:19;22.40;;;15.57;;
59788;SDS011;47353;51.614;5.530;2022-09-24T02:50:45;21.10;;;15.77;;
59788;SDS011;47353;51.614;5.530;2022-09-24T02:53:10;22.48;;;15.50;;
59788;SDS011;47353;51.614;5.530;2022-09-24T02:55:35;21.65;;;16.00;;
59788;SDS011;47353;51.614;5.530;2022-09-24T02:58:01;23.95;;;16.10;;
59788;SDS011;47353;51.614;5.530;2022-09-24T03:00:26;23.60;;;16.77;;
59788;SDS011;47353;51.614;5.530;2022-09-24T03:02:52;26.42;;;16.55;;
59788;SDS011;47353;51.614;5.530;2022-09-24T03:05:18;24.20;;;16.75;;
59788;SDS011;47353;51.614;5.530;2022-09-24T03:07:43;25.08;;;17.20;;
59788;SDS011;47353;51.614;5.530;2022-09-24T03:10:10;25.00;;;16.98;;
59788;SDS011;47353;51.614;5.530;2022-09-24T03:12:35;27.77;;;17.67;;
59788;SDS011;47353;51.614;5.530;2022-09-24T03:15:01;23.23;;;17.35;;
59788;SDS011;47353;51.614;5.530;2022-09-24T03:17:26;27.42;;;18.23;;
59788;SDS011;47353;51.614;5.530;2022-09-24T03:19:52;24.52;;;17.65;;
59788;SDS011;47353;51.614;5.530;2022-09-24T03:22:18;26.77;;;18.27;;
59788;SDS011;47353;51.614;5.530;2022-09-24T03:24:43;28.20;;;18.58;;
59788;SDS011;47353;51.614;5.530;2022-09-24T03:27:09;26.52;;;19.23;;
59788;SDS011;47353;51.614;5.530;2022-09-24T03:29:35;29.55;;;20.02;;
59788;SDS011;47353;51.614;5.530;2022-09-24T03:32:19;28.73;;;20.05;;
59788;SDS011;47353;51.614;5.530;2022-09-24T03:34:45;29.92;;;20.40;;
59788;SDS011;47353;51.614;5.530;2022-09-24T03:37:10;31.27;;;20.58;;
59788;SDS011;47353;51.614;5.530;2022-09-24T03:39:36;34.55;;;22.60;;
59788;SDS011;47353;51.614;5.530;2022-09-24T03:42:01;34.13;;;22.13;;
59788;SDS011;47353;51.614;5.530;2022-09-24T03:44:27;36.38;;;22.33;;
59788;SDS011;47353;51.614;5.530;2022-09-24T03:46:52;34.53;;;23.13;;
59788;SDS011;47353;51.614;5.530;2022-09-24T03:49:18;35.83;;;23.00;;
59788;SDS011;47353;51.614;5.530;2022-09-24T03:51:43;36.58;;;24.17;;
59788;SDS011;47353;51.614;5.530;2022-09-24T03:54:08;35.60;;;24.52;;
59788;SDS011;47353;51.614;5.530;2022-09-24T03:56:34;36.20;;;23.45;;
59788;SDS011;47353;51.614;5.530;2022-09-24T03:58:59;36.13;;;24.88;;
59788;SDS011;47353;51.614;5.530;2022-09-24T04:01:25;35.13;;;24.05;;
59788;SDS011;47353;51.614;5.530;2022-09-24T04:03:50;38.65;;;25.08;;
59788;SDS011;47353;51.614;5.530;2022-09-24T04:06:17;37.67;;;25.38;;
59788;SDS011;47353;51.614;5.530;2022-09-24T04:08:42;37.28;;;24.65;;
59788;SDS011;47353;51.614;5.530;2022-09-24T04:11:07;40.88;;;26.15;;
59788;SDS011;47353;51.614;5.530;2022-09-24T04:13:33;40.05;;;27.00;;
59788;SDS011;47353;51.614;5.530;2022-09-24T04:16:02;41.08;;;26.40;;
59788;SDS011;47353;51.614;5.530;2022-09-24T04:18:28;38.22;;;26.42;;
59788;SDS011;47353;51.614;5.530;2022-09-24T04:20:57;38.85;;;26.73;;
59788;SDS011;47353;51.614;5.530;2022-09-24T04:23:26;35.10;;;23.73;;
59788;SDS011;47353;51.614;5.530;2022-09-24T04:25:52;41.42;;;26.85;;
59788;SDS011;47353;51.614;5.530;2022-09-24T04:28:18;39.97;;;26.30;;
59788;SDS011;47353;51.614;5.530;2022-09-24T04:30:44;37.30;;;25.85;;
59788;SDS011;47353;51.614;5.530;2022-09-24T04:33:09;39.97;;;26.85;;
59788;SDS011;47353;51.614;5.530;2022-09-24T04:35:35;36.47;;;26.02;;
59788;SDS011;47353;51.614;5.530;2022-09-24T04:38:01;39.78;;;25.10;;
59788;SDS011;47353;51.614;5.530;2022-09-24T04:40:27;37.45;;;25.20;;
59788;SDS011;47353;51.614;5.530;2022-09-24T04:42:53;36.53;;;24.77;;
59788;SDS011;47353;51.614;5.530;2022-09-24T04:45:19;35.28;;;24.60;;
59788;SDS011;47353;51.614;5.530;2022-09-24T04:47:48;36.35;;;24.30;;
59788;SDS011;47353;51.614;5.530;2022-09-24T04:50:16;34.33;;;23.80;;
59788;SDS011;47353;51.614;5.530;2022-09-24T04:52:42;36.95;;;23.67;;
59788;SDS011;47353;51.614;5.530;2022-09-24T04:55:08;35.10;;;24.77;;
59788;SDS011;47353;51.614;5.530;2022-09-24T04:57:34;34.70;;;24.00;;
59788;SDS011;47353;51.614;5.530;2022-09-24T05:00:04;32.60;;;22.58;;
59788;SDS011;47353;51.614;5.530;2022-09-24T05:02:32;32.38;;;22.52;;
59788;SDS011;47353;51.614;5.530;2022-09-24T05:04:58;35.58;;;23.35;;
59788;SDS011;47353;51.614;5.530;2022-09-24T05:07:23;32.85;;;22.95;;
59788;SDS011;47353;51.614;5.530;2022-09-24T05:09:49;34.17;;;23.63;;
59788;SDS011;47353;51.614;5.530;2022-09-24T05:12:14;35.45;;;24.35;;
59788;SDS011;47353;51.614;5.530;2022-09-24T05:14:39;40.33;;;25.25;;
59788;SDS011;47353;51.614;5.530;2022-09-24T05:17:05;35.95;;;24.77;;
59788;SDS011;47353;51.614;5.530;2022-09-24T05:19:30;33.92;;;24.23;;
59788;SDS011;47353;51.614;5.530;2022-09-24T05:21:55;39.70;;;24.88;;
59788;SDS011;47353;51.614;5.530;2022-09-24T05:24:21;33.80;;;23.50;;
59788;SDS011;47353;51.614;5.530;2022-09-24T05:26:46;34.08;;;23.55;;
59788;SDS011;47353;51.614;5.530;2022-09-24T05:29:30;37.58;;;23.85;;
59788;SDS011;47353;51.614;5.530;2022-09-24T05:31:55;35.38;;;23.05;;
59788;SDS011;47353;51.614;5.530;2022-09-24T05:34:21;34.60;;;24.33;;
59788;SDS011;47353;51.614;5.530;2022-09-24T05:36:46;35.17;;;23.40;;
59788;SDS011;47353;51.614;5.530;2022-09-24T05:39:12;34.08;;;21.73;;
59788;SDS011;47353;51.614;5.530;2022-09-24T05:41:38;31.30;;;22.35;;
59788;SDS011;47353;51.614;5.530;2022-09-24T05:44:04;31.30;;;21.85;;
59788;SDS011;47353;51.614;5.530;2022-09-24T05:46:30;33.92;;;22.15;;
59788;SDS011;47353;51.614;5.530;2022-09-24T05:48:55;31.52;;;22.08;;
59788;SDS011;47353;51.614;5.530;2022-09-24T05:51:21;31.67;;;20.38;;
59788;SDS011;47353;51.614;5.530;2022-09-24T05:53:48;29.08;;;20.08;;
59788;SDS011;47353;51.614;5.530;2022-09-24T05:56:14;32.60;;;21.45;;
59788;SDS011;47353;51.614;5.530;2022-09-24T05:58:40;30.33;;;20.52;;
59788;SDS011;47353;51.614;5.530;2022-09-24T06:01:05;29.05;;;20.65;;
59788;SDS011;47353;51.614;5.530;2022-09-24T06:03:30;27.60;;;20.10;;
59788;SDS011;47353;51.614;5.530;2022-09-24T06:05:56;28.17;;;19.85;;
59788;SDS011;47353;51.614;5.530;2022-09-24T06:08:31;30.67;;;20.90;;
59788;SDS011;47353;51.614;5.530;2022-09-24T06:10:59;27.02;;;19.13;;
59788;SDS011;47353;51.614;5.530;2022-09-24T06:13:26;28.33;;;19.13;;
59788;SDS011;47353;51.614;5.530;2022-09-24T06:15:58;28.08;;;19.27;;
59788;SDS011;47353;51.614;5.530;2022-09-24T06:18:24;27.27;;;18.95;;
59788;SDS011;47353;51.614;5.530;2022-09-24T06:20:50;25.85;;;19.27;;
59788;SDS011;47353;51.614;5.530;2022-09-24T06:23:15;30.55;;;19.95;;
59788;SDS011;47353;51.614;5.530;2022-09-24T06:25:40;25.48;;;18.33;;
59788;SDS011;47353;51.614;5.530;2022-09-24T06:28:06;28.05;;;18.52;;
59788;SDS011;47353;51.614;5.530;2022-09-24T06:30:32;26.33;;;18.92;;
59788;SDS011;47353;51.614;5.530;2022-09-24T06:33:06;27.02;;;18.63;;
59788;SDS011;47353;51.614;5.530;2022-09-24T06:35:34;28.95;;;18.05;;
59788;SDS011;47353;51.614;5.530;2022-09-24T06:38:00;31.00;;;19.98;;
59788;SDS011;47353;51.614;5.530;2022-09-24T06:40:27;28.17;;;19.77;;
59788;SDS011;47353;51.614;5.530;2022-09-24T06:42:52;27.70;;;19.80;;
59788;SDS011;47353;51.614;5.530;2022-09-24T06:45:18;26.55;;;19.25;;
59788;SDS011;47353;51.614;5.530;2022-09-24T06:47:50;27.98;;;19.25;;
59788;SDS011;47353;51.614;5.530;2022-09-24T06:50:19;26.60;;;18.52;;
59788;SDS011;47353;51.614;5.530;2022-09-24T06:52:46;28.15;;;19.40;;
59788;SDS011;47353;51.614;5.530;2022-09-24T06:55:11;27.80;;;19.30;;
59788;SDS011;47353;51.614;5.530;2022-09-24T06:57:37;28.05;;;18.77;;
59788;SDS011;47353;51.614;5.530;2022-09-24T07:00:02;29.35;;;19.25;;
59788;SDS011;47353;51.614;5.530;2022-09-24T07:02:28;29.77;;;18.98;;
59788;SDS011;47353;51.614;5.530;2022-09-24T07:04:55;31.73;;;19.92;;
59788;SDS011;47353;51.614;5.530;2022-09-24T07:07:20;29.50;;;19.58;;
59788;SDS011;47353;51.614;5.530;2022-09-24T07:09:56;27.83;;;19.30;;
59788;SDS011;47353;51.614;5.530;2022-09-24T07:12:23;26.05;;;18.50;;
59788;SDS011;47353;51.614;5.530;2022-09-24T07:14:48;28.45;;;18.70;;
59788;SDS011;47353;51.614;5.530;2022-09-24T07:17:14;27.42;;;19.35;;
59788;SDS011;47353;51.614;5.530;2022-09-24T07:19:40;26.20;;;17.70;;
59788;SDS011;47353;51.614;5.530;2022-09-24T07:22:06;26.10;;;18.42;;
59788;SDS011;47353;51.614;5.530;2022-09-24T07:24:32;28.30;;;19.23;;
59788;SDS011;47353;51.614;5.530;2022-09-24T07:26:57;30.27;;;20.20;;
59788;SDS011;47353;51.614;5.530;2022-09-24T07:29:23;28.85;;;19.70;;
59788;SDS011;47353;51.614;5.530;2022-09-24T07:31:48;29.27;;;20.88;;
59788;SDS011;47353;51.614;5.530;2022-09-24T07:34:14;29.95;;;20.77;;
59788;SDS011;47353;51.614;5.530;2022-09-24T07:36:39;32.90;;;21.35;;
59788;SDS011;47353;51.614;5.530;2022-09-24T07:39:05;32.78;;;21.80;;
59788;SDS011;47353;51.614;5.530;2022-09-24T07:41:31;29.77;;;19.73;;
59788;SDS011;47353;51.614;5.530;2022-09-24T07:43:58;32.08;;;21.42;;
59788;SDS011;47353;51.614;5.530;2022-09-24T07:46:23;36.30;;;22.60;;
